sensor_id;sensor_type;location;lat;lon;timestamp;temperature;humidity
36416;DHT22;22447;44.530;18.620;2023-05-13T00:01:26;11.20;99.90
36416;DHT22;22447;44.530;18.620;2023-05-13T00:03:53;11.20;99.90
36416;DHT22;22447;44.530;18.620;2023-05-13T00:06:19;11.20;99.90
36416;DHT22;22447;44.530;18.620;2023-05-13T00:08:45;11.20;99.90
36416;DHT22;22447;44.530;18.620;2023-05-13T00:11:11;11.20;99.90
36416;DHT22;22447;44.530;18.620;2023-05-13T00:13:37;11.20;99.90
36416;DHT22;22447;44.530;18.620;2023-05-13T00:16:03;11.20;99.90
36416;DHT22;22447;44.530;18.620;2023-05-13T00:18:29;11.20;99.90
36416;DHT22;22447;44.530;18.620;2023-05-13T00:20:55;11.10;99.90
36416;DHT22;22447;44.530;18.620;2023-05-13T00:23:21;11.20;99.90
36416;DHT22;22447;44.530;18.620;2023-05-13T00:25:47;11.20;99.90
36416;DHT22;22447;44.530;18.620;2023-05-13T00:28:13;11.30;99.90
36416;DHT22;22447;44.530;18.620;2023-05-13T00:30:41;11.20;99.90
36416;DHT22;22447;44.530;18.620;2023-05-13T00:33:08;11.30;99.90
36416;DHT22;22447;44.530;18.620;2023-05-13T00:35:34;11.30;99.90
36416;DHT22;22447;44.530;18.620;2023-05-13T00:38:00;11.40;99.90
36416;DHT22;22447;44.530;18.620;2023-05-13T00:40:27;11.50;99.90
36416;DHT22;22447;44.530;18.620;2023-05-13T00:42:53;11.50;99.90
36416;DHT22;22447;44.530;18.620;2023-05-13T00:45:19;11.50;99.90
36416;DHT22;22447;44.530;18.620;2023-05-13T00:47:47;11.50;99.90
36416;DHT22;22447;44.530;18.620;2023-05-13T00:50:14;11.50;99.90
36416;DHT22;22447;44.530;18.620;2023-05-13T00:52:41;11.50;99.90
36416;DHT22;22447;44.530;18.620;2023-05-13T00:55:08;11.60;99.90
36416;DHT22;22447;44.530;18.620;2023-05-13T00:57:36;11.60;99.90
36416;DHT22;22447;44.530;18.620;2023-05-13T01:00:02;11.60;99.90
36416;DHT22;22447;44.530;18.620;2023-05-13T01:02:56;11.60;99.90
36416;DHT22;22447;44.530;18.620;2023-05-13T01:05:30;11.50;99.90
36416;DHT22;22447;44.530;18.620;2023-05-13T01:11:13;11.40;99.90
36416;DHT22;22447;44.530;18.620;2023-05-13T01:13:42;11.40;99.90
36416;DHT22;22447;44.530;18.620;2023-05-13T01:16:17;11.40;99.90
36416;DHT22;22447;44.530;18.620;2023-05-13T01:18:55;11.50;99.90
36416;DHT22;22447;44.530;18.620;2023-05-13T01:21:25;11.50;99.90
36416;DHT22;22447;44.530;18.620;2023-05-13T01:23:52;11.40;99.90
36416;DHT22;22447;44.530;18.620;2023-05-13T01:26:19;11.30;99.90
36416;DHT22;22447;44.530;18.620;2023-05-13T01:28:45;11.20;99.90
36416;DHT22;22447;44.530;18.620;2023-05-13T01:31:13;11.10;99.90
36416;DHT22;22447;44.530;18.620;2023-05-13T01:33:40;11.20;99.90
36416;DHT22;22447;44.530;18.620;2023-05-13T01:36:08;11.20;99.90
36416;DHT22;22447;44.530;18.620;2023-05-13T01:38:38;11.00;99.90
36416;DHT22;22447;44.530;18.620;2023-05-13T01:41:05;11.00;99.90
36416;DHT22;22447;44.530;18.620;2023-05-13T01:43:31;11.10;99.90
36416;DHT22;22447;44.530;18.620;2023-05-13T01:45:57;11.10;99.90
36416;DHT22;22447;44.530;18.620;2023-05-13T01:48:25;11.00;99.90
36416;DHT22;22447;44.530;18.620;2023-05-13T01:50:52;11.00;99.90
36416;DHT22;22447;44.530;18.620;2023-05-13T01:53:18;11.00;99.90
36416;DHT22;22447;44.530;18.620;2023-05-13T01:55:46;11.00;99.90
36416;DHT22;22447;44.530;18.620;2023-05-13T01:58:12;10.80;99.90
36416;DHT22;22447;44.530;18.620;2023-05-13T02:00:39;11.00;99.90
36416;DHT22;22447;44.530;18.620;2023-05-13T02:03:05;10.90;99.90
36416;DHT22;22447;44.530;18.620;2023-05-13T02:05:31;10.90;99.90
36416;DHT22;22447;44.530;18.620;2023-05-13T02:08:01;11.00;99.90
36416;DHT22;22447;44.530;18.620;2023-05-13T02:10:27;11.00;99.90
36416;DHT22;22447;44.530;18.620;2023-05-13T02:12:53;11.10;99.90
36416;DHT22;22447;44.530;18.620;2023-05-13T02:15:19;11.00;99.90
36416;DHT22;22447;44.530;18.620;2023-05-13T02:17:45;11.20;99.90
36416;DHT22;22447;44.530;18.620;2023-05-13T02:20:13;11.20;99.90
36416;DHT22;22447;44.530;18.620;2023-05-13T02:22:39;11.00;99.90
36416;DHT22;22447;44.530;18.620;2023-05-13T02:25:06;10.80;99.90
36416;DHT22;22447;44.530;18.620;2023-05-13T02:27:33;10.90;99.90
36416;DHT22;22447;44.530;18.620;2023-05-13T02:29:58;10.80;99.90
36416;DHT22;22447;44.530;18.620;2023-05-13T02:32:25;10.80;99.90
36416;DHT22;22447;44.530;18.620;2023-05-13T02:34:51;10.90;99.90
36416;DHT22;22447;44.530;18.620;2023-05-13T02:37:16;10.90;99.90
36416;DHT22;22447;44.530;18.620;2023-05-13T02:39:52;10.80;99.90
36416;DHT22;22447;44.530;18.620;2023-05-13T02:42:18;10.80;99.90
36416;DHT22;22447;44.530;18.620;2023-05-13T02:44:44;10.90;99.90
36416;DHT22;22447;44.530;18.620;2023-05-13T02:47:12;10.90;99.90
36416;DHT22;22447;44.530;18.620;2023-05-13T02:49:38;10.80;99.90
36416;DHT22;22447;44.530;18.620;2023-05-13T02:52:05;10.90;99.90
36416;DHT22;22447;44.530;18.620;2023-05-13T02:54:33;11.00;99.90
36416;DHT22;22447;44.530;18.620;2023-05-13T02:56:59;10.90;99.90
36416;DHT22;22447;44.530;18.620;2023-05-13T02:59:25;10.90;99.90
36416;DHT22;22447;44.530;18.620;2023-05-13T03:01:51;10.80;99.90
36416;DHT22;22447;44.530;18.620;2023-05-13T03:04:17;10.80;99.90
36416;DHT22;22447;44.530;18.620;2023-05-13T03:06:43;10.90;99.90
36416;DHT22;22447;44.530;18.620;2023-05-13T03:09:09;10.90;99.90
36416;DHT22;22447;44.530;18.620;2023-05-13T03:11:35;10.90;99.90
36416;DHT22;22447;44.530;18.620;2023-05-13T03:14:01;10.80;99.90
36416;DHT22;22447;44.530;18.620;2023-05-13T03:16:27;10.70;99.90
36416;DHT22;22447;44.530;18.620;2023-05-13T03:18:53;10.70;99.90
36416;DHT22;22447;44.530;18.620;2023-05-13T03:21:19;10.60;99.90
36416;DHT22;22447;44.530;18.620;2023-05-13T03:23:45;10.60;99.90
36416;DHT22;22447;44.530;18.620;2023-05-13T03:26:11;10.50;99.90
36416;DHT22;22447;44.530;18.620;2023-05-13T03:28:38;10.50;99.90
36416;DHT22;22447;44.530;18.620;2023-05-13T03:31:04;10.60;99.90
36416;DHT22;22447;44.530;18.620;2023-05-13T03:33:34;10.60;99.90
36416;DHT22;22447;44.530;18.620;2023-05-13T03:36:00;10.70;99.90
36416;DHT22;22447;44.530;18.620;2023-05-13T03:38:30;10.80;99.90
36416;DHT22;22447;44.530;18.620;2023-05-13T03:40:56;10.80;99.90
36416;DHT22;22447;44.530;18.620;2023-05-13T03:43:22;10.70;99.90
36416;DHT22;22447;44.530;18.620;2023-05-13T03:45:53;10.60;99.90
36416;DHT22;22447;44.530;18.620;2023-05-13T03:48:21;10.50;99.90
36416;DHT22;22447;44.530;18.620;2023-05-13T03:50:47;10.40;99.90
36416;DHT22;22447;44.530;18.620;2023-05-13T03:53:15;10.30;99.90
36416;DHT22;22447;44.530;18.620;2023-05-13T03:55:42;10.50;99.90
36416;DHT22;22447;44.530;18.620;2023-05-13T03:58:12;10.40;99.90
36416;DHT22;22447;44.530;18.620;2023-05-13T04:00:38;10.40;99.90
36416;DHT22;22447;44.530;18.620;2023-05-13T04:03:05;10.40;99.90
36416;DHT22;22447;44.530;18.620;2023-05-13T04:05:31;10.40;99.90
36416;DHT22;22447;44.530;18.620;2023-05-13T04:07:57;10.30;99.90
36416;DHT22;22447;44.530;18.620;2023-05-13T04:10:24;10.30;99.90
36416;DHT22;22447;44.530;18.620;2023-05-13T04:12:50;10.50;99.90
36416;DHT22;22447;44.530;18.620;2023-05-13T04:15:16;10.50;99.90
36416;DHT22;22447;44.530;18.620;2023-05-13T04:17:41;10.50;99.90
36416;DHT22;22447;44.530;18.620;2023-05-13T04:20:08;10.50;99.90
36416;DHT22;22447;44.530;18.620;2023-05-13T04:22:34;10.70;99.90
36416;DHT22;22447;44.530;18.620;2023-05-13T04:25:00;10.60;99.90
36416;DHT22;22447;44.530;18.620;2023-05-13T04:27:26;10.60;99.90
36416;DHT22;22447;44.530;18.620;2023-05-13T04:29:58;10.70;99.90
36416;DHT22;22447;44.530;18.620;2023-05-13T04:32:26;10.80;99.90
36416;DHT22;22447;44.530;18.620;2023-05-13T04:34:54;10.80;99.90
36416;DHT22;22447;44.530;18.620;2023-05-13T04:37:21;10.80;99.90
36416;DHT22;22447;44.530;18.620;2023-05-13T04:39:49;10.70;99.90
36416;DHT22;22447;44.530;18.620;2023-05-13T04:42:17;10.90;99.90
36416;DHT22;22447;44.530;18.620;2023-05-13T04:44:43;10.90;99.90
36416;DHT22;22447;44.530;18.620;2023-05-13T04:47:10;10.70;99.90
36416;DHT22;22447;44.530;18.620;2023-05-13T04:49:36;10.70;99.90
36416;DHT22;22447;44.530;18.620;2023-05-13T04:52:03;10.70;99.90
36416;DHT22;22447;44.530;18.620;2023-05-13T04:54:30;10.80;99.90
36416;DHT22;22447;44.530;18.620;2023-05-13T04:56:56;10.70;99.90
36416;DHT22;22447;44.530;18.620;2023-05-13T04:59:23;10.90;99.90
36416;DHT22;22447;44.530;18.620;2023-05-13T05:01:49;10.90;99.90
36416;DHT22;22447;44.530;18.620;2023-05-13T05:04:16;10.90;99.90
36416;DHT22;22447;44.530;18.620;2023-05-13T05:06:42;10.90;99.90
36416;DHT22;22447;44.530;18.620;2023-05-13T05:09:08;10.80;99.90
36416;DHT22;22447;44.530;18.620;2023-05-13T05:11:34;11.00;99.90
36416;DHT22;22447;44.530;18.620;2023-05-13T05:14:00;11.10;99.90
36416;DHT22;22447;44.530;18.620;2023-05-13T05:16:26;10.80;99.90
36416;DHT22;22447;44.530;18.620;2023-05-13T05:18:52;10.80;99.90
36416;DHT22;22447;44.530;18.620;2023-05-13T05:21:18;10.60;99.90
36416;DHT22;22447;44.530;18.620;2023-05-13T05:23:44;10.80;99.90
36416;DHT22;22447;44.530;18.620;2023-05-13T05:26:11;10.70;99.90
36416;DHT22;22447;44.530;18.620;2023-05-13T05:28:38;10.80;99.90
36416;DHT22;22447;44.530;18.620;2023-05-13T05:31:05;11.00;99.90
36416;DHT22;22447;44.530;18.620;2023-05-13T05:33:33;11.20;99.90
36416;DHT22;22447;44.530;18.620;2023-05-13T05:35:59;11.20;99.90
36416;DHT22;22447;44.530;18.620;2023-05-13T05:38:25;11.40;99.90
36416;DHT22;22447;44.530;18.620;2023-05-13T05:40:53;11.60;99.90
36416;DHT22;22447;44.530;18.620;2023-05-13T05:43:19;11.80;99.90
36416;DHT22;22447;44.530;18.620;2023-05-13T05:45:45;12.00;99.90
36416;DHT22;22447;44.530;18.620;2023-05-13T05:48:15;12.20;99.90
36416;DHT22;22447;44.530;18.620;2023-05-13T05:50:41;12.30;99.90
36416;DHT22;22447;44.530;18.620;2023-05-13T05:53:10;12.40;99.90
36416;DHT22;22447;44.530;18.620;2023-05-13T05:55:38;12.60;99.90
36416;DHT22;22447;44.530;18.620;2023-05-13T05:58:04;12.80;99.90
36416;DHT22;22447;44.530;18.620;2023-05-13T06:00:32;13.00;99.90
36416;DHT22;22447;44.530;18.620;2023-05-13T06:02:58;13.00;99.90
36416;DHT22;22447;44.530;18.620;2023-05-13T06:05:25;13.00;99.90
36416;DHT22;22447;44.530;18.620;2023-05-13T06:07:50;13.00;99.90
36416;DHT22;22447;44.530;18.620;2023-05-13T06:10:17;13.20;99.90
36416;DHT22;22447;44.530;18.620;2023-05-13T06:12:43;13.30;99.90
36416;DHT22;22447;44.530;18.620;2023-05-13T06:15:09;13.50;99.90
36416;DHT22;22447;44.530;18.620;2023-05-13T06:17:36;13.70;99.90
36416;DHT22;22447;44.530;18.620;2023-05-13T06:20:04;13.80;99.90
36416;DHT22;22447;44.530;18.620;2023-05-13T06:22:31;14.00;99.90
36416;DHT22;22447;44.530;18.620;2023-05-13T06:24:56;14.30;99.90
36416;DHT22;22447;44.530;18.620;2023-05-13T06:27:23;14.40;99.90
36416;DHT22;22447;44.530;18.620;2023-05-13T06:29:49;14.80;99.90
36416;DHT22;22447;44.530;18.620;2023-05-13T06:32:15;15.10;99.90
36416;DHT22;22447;44.530;18.620;2023-05-13T06:34:42;14.80;99.90
36416;DHT22;22447;44.530;18.620;2023-05-13T06:37:11;15.20;99.90
36416;DHT22;22447;44.530;18.620;2023-05-13T06:39:41;15.10;99.90
36416;DHT22;22447;44.530;18.620;2023-05-13T06:42:07;15.50;99.90
36416;DHT22;22447;44.530;18.620;2023-05-13T06:44:53;15.80;99.90
36416;DHT22;22447;44.530;18.620;2023-05-13T06:47:25;16.10;99.90
36416;DHT22;22447;44.530;18.620;2023-05-13T06:49:51;16.10;99.90
36416;DHT22;22447;44.530;18.620;2023-05-13T06:52:17;16.20;99.90
36416;DHT22;22447;44.530;18.620;2023-05-13T06:54:43;16.30;99.90
36416;DHT22;22447;44.530;18.620;2023-05-13T06:57:09;16.20;99.90
36416;DHT22;22447;44.530;18.620;2023-05-13T06:59:35;16.00;99.90
36416;DHT22;22447;44.530;18.620;2023-05-13T07:02:01;16.20;99.90
36416;DHT22;22447;44.530;18.620;2023-05-13T07:04:27;16.40;99.90
36416;DHT22;22447;44.530;18.620;2023-05-13T07:06:55;16.20;99.90
36416;DHT22;22447;44.530;18.620;2023-05-13T07:09:21;16.50;99.90
36416;DHT22;22447;44.530;18.620;2023-05-13T07:11:47;16.70;99.90
36416;DHT22;22447;44.530;18.620;2023-05-13T07:14:13;16.80;99.90
36416;DHT22;22447;44.530;18.620;2023-05-13T07:16:39;17.10;99.90
36416;DHT22;22447;44.530;18.620;2023-05-13T07:19:05;17.20;99.90
36416;DHT22;22447;44.530;18.620;2023-05-13T07:21:31;17.10;99.90
36416;DHT22;22447;44.530;18.620;2023-05-13T07:23:57;17.70;99.90
36416;DHT22;22447;44.530;18.620;2023-05-13T07:26:23;17.60;99.90
36416;DHT22;22447;44.530;18.620;2023-05-13T07:28:49;18.20;99.90
36416;DHT22;22447;44.530;18.620;2023-05-13T07:31:15;18.50;99.90
36416;DHT22;22447;44.530;18.620;2023-05-13T07:33:41;18.70;99.90
36416;DHT22;22447;44.530;18.620;2023-05-13T07:36:07;19.00;99.90
36416;DHT22;22447;44.530;18.620;2023-05-13T07:38:33;18.40;98.00
36416;DHT22;22447;44.530;18.620;2023-05-13T07:40:59;18.10;99.90
36416;DHT22;22447;44.530;18.620;2023-05-13T07:43:25;17.90;99.40
36416;DHT22;22447;44.530;18.620;2023-05-13T07:45:52;17.90;99.90
36416;DHT22;22447;44.530;18.620;2023-05-13T07:48:18;18.00;99.90
36416;DHT22;22447;44.530;18.620;2023-05-13T07:50:45;17.90;99.90
36416;DHT22;22447;44.530;18.620;2023-05-13T07:53:11;18.20;99.90
36416;DHT22;22447;44.530;18.620;2023-05-13T07:55:37;18.30;99.90
36416;DHT22;22447;44.530;18.620;2023-05-13T07:58:03;18.10;99.90
36416;DHT22;22447;44.530;18.620;2023-05-13T08:00:29;18.00;99.90
36416;DHT22;22447;44.530;18.620;2023-05-13T08:02:54;18.20;99.90
36416;DHT22;22447;44.530;18.620;2023-05-13T08:05:21;18.30;99.90
36416;DHT22;22447;44.530;18.620;2023-05-13T08:07:46;18.40;99.90
36416;DHT22;22447;44.530;18.620;2023-05-13T08:10:13;18.60;99.90
36416;DHT22;22447;44.530;18.620;2023-05-13T08:12:39;18.60;99.90
36416;DHT22;22447;44.530;18.620;2023-05-13T08:15:05;18.60;99.30
36416;DHT22;22447;44.530;18.620;2023-05-13T08:17:32;18.10;99.90
36416;DHT22;22447;44.530;18.620;2023-05-13T08:20:00;18.50;99.90
36416;DHT22;22447;44.530;18.620;2023-05-13T08:22:26;18.80;99.50
36416;DHT22;22447;44.530;18.620;2023-05-13T08:24:52;19.00;99.00
36416;DHT22;22447;44.530;18.620;2023-05-13T08:27:18;19.20;99.80
36416;DHT22;22447;44.530;18.620;2023-05-13T08:29:44;19.50;97.30
36416;DHT22;22447;44.530;18.620;2023-05-13T08:32:10;19.20;97.20
36416;DHT22;22447;44.530;18.620;2023-05-13T08:34:37;19.20;97.80
36416;DHT22;22447;44.530;18.620;2023-05-13T08:37:03;19.20;99.50
36416;DHT22;22447;44.530;18.620;2023-05-13T08:39:28;19.30;98.10
36416;DHT22;22447;44.530;18.620;2023-05-13T08:41:55;19.30;96.20
36416;DHT22;22447;44.530;18.620;2023-05-13T08:44:25;19.20;95.90
36416;DHT22;22447;44.530;18.620;2023-05-13T08:49:49;19.10;99.40
36416;DHT22;22447;44.530;18.620;2023-05-13T08:52:17;19.40;98.30
36416;DHT22;22447;44.530;18.620;2023-05-13T08:54:44;19.70;98.20
36416;DHT22;22447;44.530;18.620;2023-05-13T08:57:11;20.50;97.90
36416;DHT22;22447;44.530;18.620;2023-05-13T08:59:36;21.00;94.00
36416;DHT22;22447;44.530;18.620;2023-05-13T09:02:03;20.20;93.60
36416;DHT22;22447;44.530;18.620;2023-05-13T09:04:31;20.30;93.70
36416;DHT22;22447;44.530;18.620;2023-05-13T09:06:57;21.20;91.80
36416;DHT22;22447;44.530;18.620;2023-05-13T09:09:23;21.80;90.40
36416;DHT22;22447;44.530;18.620;2023-05-13T09:11:49;21.70;88.60
36416;DHT22;22447;44.530;18.620;2023-05-13T09:14:18;22.00;87.90
36416;DHT22;22447;44.530;18.620;2023-05-13T09:16:44;22.70;88.50
36416;DHT22;22447;44.530;18.620;2023-05-13T09:19:12;23.30;84.90
36416;DHT22;22447;44.530;18.620;2023-05-13T09:21:38;23.20;75.20
36416;DHT22;22447;44.530;18.620;2023-05-13T09:24:06;23.40;75.60
36416;DHT22;22447;44.530;18.620;2023-05-13T09:26:33;23.70;76.10
36416;DHT22;22447;44.530;18.620;2023-05-13T09:31:45;23.70;68.30
36416;DHT22;22447;44.530;18.620;2023-05-13T09:34:11;22.90;68.20
36416;DHT22;22447;44.530;18.620;2023-05-13T09:36:38;23.50;68.30
36416;DHT22;22447;44.530;18.620;2023-05-13T09:39:04;23.70;69.30
36416;DHT22;22447;44.530;18.620;2023-05-13T09:41:31;23.50;68.80
36416;DHT22;22447;44.530;18.620;2023-05-13T09:43:57;24.00;63.70
36416;DHT22;22447;44.530;18.620;2023-05-13T09:46:26;24.00;64.10
36416;DHT22;22447;44.530;18.620;2023-05-13T09:48:52;24.00;63.30
36416;DHT22;22447;44.530;18.620;2023-05-13T09:51:27;24.40;68.20
36416;DHT22;22447;44.530;18.620;2023-05-13T09:54:06;24.80;62.70
36416;DHT22;22447;44.530;18.620;2023-05-13T09:56:34;24.50;59.80
36416;DHT22;22447;44.530;18.620;2023-05-13T09:59:01;24.30;55.50
36416;DHT22;22447;44.530;18.620;2023-05-13T10:01:28;24.30;59.90
36416;DHT22;22447;44.530;18.620;2023-05-13T10:03:56;24.20;51.90
36416;DHT22;22447;44.530;18.620;2023-05-13T10:06:28;23.70;56.00
36416;DHT22;22447;44.530;18.620;2023-05-13T10:08:57;23.90;56.00
36416;DHT22;22447;44.530;18.620;2023-05-13T10:11:23;23.80;57.10
36416;DHT22;22447;44.530;18.620;2023-05-13T10:14:09;23.70;57.40
36416;DHT22;22447;44.530;18.620;2023-05-13T10:16:35;23.70;53.90
36416;DHT22;22447;44.530;18.620;2023-05-13T10:19:01;23.20;52.80
36416;DHT22;22447;44.530;18.620;2023-05-13T10:21:28;23.30;53.30
36416;DHT22;22447;44.530;18.620;2023-05-13T10:23:57;23.30;51.40
36416;DHT22;22447;44.530;18.620;2023-05-13T10:26:23;22.60;52.00
36416;DHT22;22447;44.530;18.620;2023-05-13T10:28:50;22.50;53.40
36416;DHT22;22447;44.530;18.620;2023-05-13T10:31:16;22.60;51.40
36416;DHT22;22447;44.530;18.620;2023-05-13T10:33:43;22.90;54.00
36416;DHT22;22447;44.530;18.620;2023-05-13T10:39:40;23.30;55.10
36416;DHT22;22447;44.530;18.620;2023-05-13T10:44:57;24.40;53.30
36416;DHT22;22447;44.530;18.620;2023-05-13T10:47:23;24.60;52.10
36416;DHT22;22447;44.530;18.620;2023-05-13T10:49:51;25.10;52.00
36416;DHT22;22447;44.530;18.620;2023-05-13T10:52:17;25.40;50.40
36416;DHT22;22447;44.530;18.620;2023-05-13T10:54:59;25.10;49.30
36416;DHT22;22447;44.530;18.620;2023-05-13T10:57:38;25.30;49.30
36416;DHT22;22447;44.530;18.620;2023-05-13T11:00:15;25.60;46.10
36416;DHT22;22447;44.530;18.620;2023-05-13T11:02:42;25.10;50.70
36416;DHT22;22447;44.530;18.620;2023-05-13T11:05:08;25.30;50.20
36416;DHT22;22447;44.530;18.620;2023-05-13T11:07:38;25.50;47.20
36416;DHT22;22447;44.530;18.620;2023-05-13T11:10:26;25.60;47.30
36416;DHT22;22447;44.530;18.620;2023-05-13T11:15:43;24.90;42.10
36416;DHT22;22447;44.530;18.620;2023-05-13T11:18:14;24.50;44.40
36416;DHT22;22447;44.530;18.620;2023-05-13T11:20:40;24.40;47.90
36416;DHT22;22447;44.530;18.620;2023-05-13T11:23:16;25.00;49.90
36416;DHT22;22447;44.530;18.620;2023-05-13T11:25:43;25.70;49.10
36416;DHT22;22447;44.530;18.620;2023-05-13T11:28:14;25.20;46.10
36416;DHT22;22447;44.530;18.620;2023-05-13T11:30:52;25.70;53.80
36416;DHT22;22447;44.530;18.620;2023-05-13T11:33:19;26.10;43.60
36416;DHT22;22447;44.530;18.620;2023-05-13T11:35:53;26.50;44.00
36416;DHT22;22447;44.530;18.620;2023-05-13T11:38:23;25.00;43.70
36416;DHT22;22447;44.530;18.620;2023-05-13T11:40:50;25.50;45.60
36416;DHT22;22447;44.530;18.620;2023-05-13T11:43:20;24.80;44.90
36416;DHT22;22447;44.530;18.620;2023-05-13T11:45:47;24.60;45.70
36416;DHT22;22447;44.530;18.620;2023-05-13T11:48:23;24.30;44.20
36416;DHT22;22447;44.530;18.620;2023-05-13T11:50:49;25.20;47.40
36416;DHT22;22447;44.530;18.620;2023-05-13T11:53:20;24.00;47.10
36416;DHT22;22447;44.530;18.620;2023-05-13T11:55:47;24.10;48.00
36416;DHT22;22447;44.530;18.620;2023-05-13T11:58:13;24.10;47.70
36416;DHT22;22447;44.530;18.620;2023-05-13T12:00:40;22.40;51.40
36416;DHT22;22447;44.530;18.620;2023-05-13T12:03:11;22.20;51.40
36416;DHT22;22447;44.530;18.620;2023-05-13T12:05:40;22.00;51.50
36416;DHT22;22447;44.530;18.620;2023-05-13T12:08:09;21.70;54.80
36416;DHT22;22447;44.530;18.620;2023-05-13T12:10:41;20.80;57.50
36416;DHT22;22447;44.530;18.620;2023-05-13T12:13:07;19.80;60.50
36416;DHT22;22447;44.530;18.620;2023-05-13T12:15:33;19.20;60.80
36416;DHT22;22447;44.530;18.620;2023-05-13T12:18:00;19.00;61.50
36416;DHT22;22447;44.530;18.620;2023-05-13T12:20:26;18.70;63.50
36416;DHT22;22447;44.530;18.620;2023-05-13T12:22:53;18.90;64.70
36416;DHT22;22447;44.530;18.620;2023-05-13T12:25:42;18.80;68.40
36416;DHT22;22447;44.530;18.620;2023-05-13T12:30:39;18.20;75.40
36416;DHT22;22447;44.530;18.620;2023-05-13T12:33:18;18.20;79.50
36416;DHT22;22447;44.530;18.620;2023-05-13T12:35:47;18.00;80.70
36416;DHT22;22447;44.530;18.620;2023-05-13T12:38:15;17.90;97.10
36416;DHT22;22447;44.530;18.620;2023-05-13T12:40:45;17.90;99.90
36416;DHT22;22447;44.530;18.620;2023-05-13T12:43:12;17.80;99.90
36416;DHT22;22447;44.530;18.620;2023-05-13T12:45:40;17.70;99.90
36416;DHT22;22447;44.530;18.620;2023-05-13T12:48:06;17.50;99.90
36416;DHT22;22447;44.530;18.620;2023-05-13T12:50:32;16.80;99.90
36416;DHT22;22447;44.530;18.620;2023-05-13T12:52:58;17.10;99.90
36416;DHT22;22447;44.530;18.620;2023-05-13T12:55:25;17.40;99.90
36416;DHT22;22447;44.530;18.620;2023-05-13T12:58:03;17.50;99.90
36416;DHT22;22447;44.530;18.620;2023-05-13T13:00:29;17.60;99.90
36416;DHT22;22447;44.530;18.620;2023-05-13T13:02:56;17.60;99.90
36416;DHT22;22447;44.530;18.620;2023-05-13T13:05:23;17.70;99.90
36416;DHT22;22447;44.530;18.620;2023-05-13T13:07:49;18.20;99.90
36416;DHT22;22447;44.530;18.620;2023-05-13T13:10:16;18.00;99.90
36416;DHT22;22447;44.530;18.620;2023-05-13T13:12:42;18.30;99.90
36416;DHT22;22447;44.530;18.620;2023-05-13T13:15:09;18.10;99.90
36416;DHT22;22447;44.530;18.620;2023-05-13T13:17:36;18.40;99.90
36416;DHT22;22447;44.530;18.620;2023-05-13T13:20:04;18.70;99.90
36416;DHT22;22447;44.530;18.620;2023-05-13T13:22:30;18.90;99.90
36416;DHT22;22447;44.530;18.620;2023-05-13T13:24:56;19.10;99.90
36416;DHT22;22447;44.530;18.620;2023-05-13T13:27:22;19.20;99.20
36416;DHT22;22447;44.530;18.620;2023-05-13T13:29:48;19.30;98.00
36416;DHT22;22447;44.530;18.620;2023-05-13T13:32:14;19.00;96.40
36416;DHT22;22447;44.530;18.620;2023-05-13T13:34:40;18.70;97.90
36416;DHT22;22447;44.530;18.620;2023-05-13T13:37:06;18.70;99.90
36416;DHT22;22447;44.530;18.620;2023-05-13T13:39:32;18.70;99.90
36416;DHT22;22447;44.530;18.620;2023-05-13T13:41:59;19.00;98.10
36416;DHT22;22447;44.530;18.620;2023-05-13T13:44:25;19.40;99.20
36416;DHT22;22447;44.530;18.620;2023-05-13T13:46:51;19.60;97.80
36416;DHT22;22447;44.530;18.620;2023-05-13T13:49:17;19.90;99.90
36416;DHT22;22447;44.530;18.620;2023-05-13T13:51:44;20.10;99.90
36416;DHT22;22447;44.530;18.620;2023-05-13T13:54:10;20.30;98.10
36416;DHT22;22447;44.530;18.620;2023-05-13T13:56:37;20.30;96.60
36416;DHT22;22447;44.530;18.620;2023-05-13T13:59:04;20.20;96.40
36416;DHT22;22447;44.530;18.620;2023-05-13T14:01:30;20.20;94.80
36416;DHT22;22447;44.530;18.620;2023-05-13T14:04:16;20.20;95.60
36416;DHT22;22447;44.530;18.620;2023-05-13T14:06:44;20.10;98.40
36416;DHT22;22447;44.530;18.620;2023-05-13T14:09:10;20.10;97.80
36416;DHT22;22447;44.530;18.620;2023-05-13T14:11:37;20.20;99.90
36416;DHT22;22447;44.530;18.620;2023-05-13T14:14:03;20.10;99.90
36416;DHT22;22447;44.530;18.620;2023-05-13T14:16:29;20.10;99.90
36416;DHT22;22447;44.530;18.620;2023-05-13T14:18:55;20.10;99.90
36416;DHT22;22447;44.530;18.620;2023-05-13T14:21:21;20.10;99.90
36416;DHT22;22447;44.530;18.620;2023-05-13T14:23:47;19.90;99.90
36416;DHT22;22447;44.530;18.620;2023-05-13T14:26:13;20.00;99.90
36416;DHT22;22447;44.530;18.620;2023-05-13T14:28:42;19.90;99.90
36416;DHT22;22447;44.530;18.620;2023-05-13T14:31:09;19.80;99.90
36416;DHT22;22447;44.530;18.620;2023-05-13T14:33:35;19.70;99.90
36416;DHT22;22447;44.530;18.620;2023-05-13T14:36:01;19.40;99.90
36416;DHT22;22447;44.530;18.620;2023-05-13T14:38:27;19.20;99.90
36416;DHT22;22447;44.530;18.620;2023-05-13T14:40:54;19.30;99.90
36416;DHT22;22447;44.530;18.620;2023-05-13T14:43:21;19.20;99.90
36416;DHT22;22447;44.530;18.620;2023-05-13T14:45:47;19.20;99.90
36416;DHT22;22447;44.530;18.620;2023-05-13T14:48:13;19.10;99.90
36416;DHT22;22447;44.530;18.620;2023-05-13T14:50:45;19.00;99.90
36416;DHT22;22447;44.530;18.620;2023-05-13T14:53:11;18.90;99.90
36416;DHT22;22447;44.530;18.620;2023-05-13T14:55:37;18.80;99.90
36416;DHT22;22447;44.530;18.620;2023-05-13T14:58:03;18.80;99.90
36416;DHT22;22447;44.530;18.620;2023-05-13T15:00:30;18.70;99.90
36416;DHT22;22447;44.530;18.620;2023-05-13T15:02:56;18.80;99.90
36416;DHT22;22447;44.530;18.620;2023-05-13T15:05:23;18.70;99.90
36416;DHT22;22447;44.530;18.620;2023-05-13T15:07:51;18.60;99.90
36416;DHT22;22447;44.530;18.620;2023-05-13T15:10:17;18.40;99.90
36416;DHT22;22447;44.530;18.620;2023-05-13T15:12:43;18.40;99.90
36416;DHT22;22447;44.530;18.620;2023-05-13T15:15:09;18.50;99.90
36416;DHT22;22447;44.530;18.620;2023-05-13T15:17:35;18.60;99.90
36416;DHT22;22447;44.530;18.620;2023-05-13T15:20:02;18.20;99.90
36416;DHT22;22447;44.530;18.620;2023-05-13T15:22:28;18.30;99.90
36416;DHT22;22447;44.530;18.620;2023-05-13T15:24:54;18.40;99.90
36416;DHT22;22447;44.530;18.620;2023-05-13T15:27:19;18.40;99.90
36416;DHT22;22447;44.530;18.620;2023-05-13T15:29:46;18.30;99.90
36416;DHT22;22447;44.530;18.620;2023-05-13T15:32:12;18.30;99.90
36416;DHT22;22447;44.530;18.620;2023-05-13T15:34:39;18.30;99.90
36416;DHT22;22447;44.530;18.620;2023-05-13T15:37:05;18.30;99.90